createdAt,value
2019-03-18T00:01:51.447Z,97184.80
2019-03-18T00:04:18.275Z,97190.19
2019-03-18T00:06:44.900Z,97187.47
2019-03-18T00:09:11.478Z,97194.69
2019-03-18T00:11:38.215Z,97193.34
2019-03-18T00:14:04.999Z,97194.16
2019-03-18T00:16:32.738Z,97196.56
2019-03-18T00:18:59.410Z,97197.88
2019-03-18T00:21:25.988Z,97201.07
2019-03-18T00:23:52.791Z,97200.72
2019-03-18T00:26:19.640Z,97195.81
2019-03-18T00:28:46.520Z,97194.14
2019-03-18T00:31:13.096Z,97186.58
2019-03-18T00:33:39.668Z,97191.98
2019-03-18T00:36:06.439Z,97194.92
2019-03-18T00:38:33.107Z,97196.73
2019-03-18T00:40:59.917Z,97209.89
2019-03-18T00:43:26.515Z,97215.55
2019-03-18T00:45:53.237Z,97214.46
2019-03-18T00:48:19.986Z,97222.77
2019-03-18T00:50:46.758Z,97216.91
2019-03-18T00:53:13.524Z,97216.38
2019-03-18T00:55:40.107Z,97208.55
2019-03-18T00:58:06.839Z,97205.61
2019-03-18T01:00:33.616Z,97197.80
2019-03-18T01:03:00.451Z,97211.73
2019-03-18T01:05:27.216Z,97214.67
2019-03-18T01:07:53.891Z,97222.95
2019-03-18T01:10:20.527Z,97229.10
2019-03-18T01:12:47.369Z,97240.39
2019-03-18T01:15:26.790Z,97238.52
2019-03-18T01:17:43.225Z,97236.36
2019-03-18T01:20:10.446Z,97230.41
2019-03-18T01:22:36.990Z,97241.73
2019-03-18T01:25:03.892Z,97241.41
2019-03-18T01:27:30.440Z,97236.80
2019-03-18T01:29:57.056Z,97235.21
2019-03-18T01:32:23.819Z,97235.25
2019-03-18T01:34:50.648Z,97235.21
2019-03-18T01:37:17.296Z,97234.11
2019-03-18T01:39:44.063Z,97233.63
2019-03-18T01:42:10.704Z,97240.67
2019-03-18T01:44:37.266Z,97237.13
2019-03-18T01:47:04.157Z,97250.00
2019-03-18T01:49:30.820Z,97246.42
2019-03-18T01:51:57.623Z,97249.88
2019-03-18T01:54:24.502Z,97259.33
2019-03-18T01:56:51.160Z,97274.93
2019-03-18T01:59:17.737Z,97284.91
2019-03-18T02:01:44.461Z,97274.11
2019-03-18T02:04:11.129Z,97264.91
2019-03-18T02:06:37.794Z,97276.56
2019-03-18T02:09:05.275Z,97280.02
2019-03-18T02:11:32.024Z,97272.81
2019-03-18T02:13:58.669Z,97257.66
2019-03-18T02:16:25.595Z,97264.09
2019-03-18T02:18:52.369Z,97273.42
2019-03-18T02:21:19.242Z,97280.59
2019-03-18T02:23:45.999Z,97279.44
2019-03-18T02:26:12.552Z,97277.23
2019-03-18T02:28:39.210Z,97285.25
2019-03-18T02:31:06.252Z,97278.20
2019-03-18T02:33:32.871Z,97275.95
2019-03-18T02:35:59.538Z,97278.83
2019-03-18T02:38:26.523Z,97278.45
2019-03-18T02:40:53.170Z,97292.36
2019-03-18T02:43:19.830Z,97291.50
2019-03-18T02:45:47.776Z,97286.33
2019-03-18T02:48:14.458Z,97288.44
2019-03-18T02:50:41.229Z,97286.99
2019-03-18T02:53:08.035Z,97285.08
2019-03-18T02:55:34.685Z,97294.19
2019-03-18T02:58:01.324Z,97298.94
2019-03-18T03:00:28.070Z,97282.92
2019-03-18T03:02:54.598Z,97290.98
2019-03-18T03:05:21.254Z,97294.67
2019-03-18T03:07:48.124Z,97297.84
2019-03-18T03:10:14.914Z,97299.70
2019-03-18T03:12:41.475Z,97289.20
2019-03-18T03:15:08.142Z,97289.16
2019-03-18T03:17:34.685Z,97290.88
2019-03-18T03:20:01.562Z,97294.63
2019-03-18T03:22:28.077Z,97304.27
2019-03-18T03:24:54.748Z,97313.04
2019-03-18T03:27:21.434Z,97324.81
2019-03-18T03:29:48.141Z,97326.40
2019-03-18T03:32:14.694Z,97327.80
2019-03-18T03:34:41.501Z,97334.16
2019-03-18T03:37:08.120Z,97334.98
2019-03-18T03:39:34.681Z,97341.41
2019-03-18T03:42:01.613Z,97327.06
2019-03-18T03:44:28.150Z,97332.95
2019-03-18T03:46:54.885Z,97338.62
2019-03-18T03:49:21.622Z,97334.25
2019-03-18T03:51:48.130Z,97337.75
2019-03-18T03:54:14.687Z,97334.02
2019-03-18T03:56:41.366Z,97330.98
2019-03-18T03:59:08.060Z,97334.20
2019-03-18T04:01:34.647Z,97337.70
2019-03-18T04:04:01.238Z,97339.09
2019-03-18T04:06:27.942Z,97335.06
2019-03-18T04:08:54.585Z,97331.46
2019-03-18T04:11:21.241Z,97338.28
2019-03-18T04:13:47.976Z,97324.99
2019-03-18T04:16:14.635Z,97329.55
2019-03-18T04:18:41.165Z,97319.28
2019-03-18T04:21:07.814Z,97330.31
2019-03-18T04:23:34.582Z,97330.47
2019-03-18T04:26:01.231Z,97336.55
2019-03-18T04:28:27.889Z,97333.63
2019-03-18T04:33:24.269Z,97350.26
2019-03-18T04:35:50.929Z,97364.91
2019-03-18T04:38:17.724Z,97364.49
2019-03-18T04:40:44.517Z,97363.16
2019-03-18T04:43:11.218Z,97346.47
2019-03-18T04:45:37.970Z,97342.97
2019-03-18T04:48:04.753Z,97355.28
2019-03-18T04:50:31.435Z,97362.52
2019-03-18T04:52:58.073Z,97360.66
2019-03-18T04:55:24.733Z,97365.91
2019-03-18T04:57:51.433Z,97371.45
2019-03-18T05:00:18.064Z,97366.67
2019-03-18T05:02:44.792Z,97374.14
2019-03-18T05:05:11.481Z,97369.83
2019-03-18T05:07:38.267Z,97365.98
2019-03-18T05:10:05.266Z,97375.13
2019-03-18T05:12:31.809Z,97375.87
2019-03-18T05:14:58.337Z,97375.52
2019-03-18T05:17:26.977Z,97382.98
2019-03-18T05:19:53.473Z,97381.59
2019-03-18T05:22:20.017Z,97372.20
2019-03-18T05:24:46.557Z,97369.63
2019-03-18T05:27:13.200Z,97379.48
2019-03-18T05:29:39.857Z,97379.20
2019-03-18T05:32:06.581Z,97386.20
2019-03-18T05:34:33.121Z,97387.13
2019-03-18T05:36:59.892Z,97388.78
2019-03-18T05:39:27.251Z,97398.58
2019-03-18T05:41:53.923Z,97397.77
2019-03-18T05:44:20.619Z,97394.09
2019-03-18T05:46:47.417Z,97395.48
2019-03-18T05:49:14.278Z,97403.01
2019-03-18T05:51:40.828Z,97401.84
2019-03-18T05:54:07.544Z,97410.71
2019-03-18T05:56:34.247Z,97414.21
2019-03-18T05:59:01.052Z,97400.09
2019-03-18T06:01:27.945Z,97400.49
2019-03-18T06:03:54.561Z,97399.91
2019-03-18T06:06:21.659Z,97386.84
2019-03-18T06:08:48.344Z,97386.59
2019-03-18T06:11:14.874Z,97382.59
2019-03-18T06:13:41.625Z,97383.17
2019-03-18T06:16:08.336Z,97385.44
2019-03-18T06:18:35.247Z,97396.00
2019-03-18T06:21:01.989Z,97396.87
2019-03-18T06:23:28.686Z,97404.34
2019-03-18T06:25:55.374Z,97402.00
2019-03-18T06:28:22.204Z,97397.73
2019-03-18T06:30:49.030Z,97396.16
2019-03-18T06:33:15.570Z,97397.31
2019-03-18T06:35:42.426Z,97413.55
2019-03-18T06:38:09.208Z,97415.86
2019-03-18T06:40:35.990Z,97422.80
2019-03-18T06:43:02.828Z,97430.54
2019-03-18T06:45:29.528Z,97432.27
2019-03-18T06:48:04.827Z,97436.34
2019-03-18T06:50:24.639Z,97431.63
2019-03-18T06:52:51.169Z,97419.38
2019-03-18T06:55:17.709Z,97431.52
2019-03-18T06:57:44.423Z,97438.00
2019-03-18T07:00:11.054Z,97429.84
2019-03-18T07:02:37.602Z,97433.15
2019-03-18T07:05:05.973Z,97425.08
2019-03-18T07:07:32.497Z,97433.30
2019-03-18T07:09:59.149Z,97447.21
2019-03-18T07:12:25.731Z,97434.20
2019-03-18T07:14:52.288Z,97436.84
2019-03-18T07:17:18.918Z,97444.95
2019-03-18T07:19:45.588Z,97447.24
2019-03-18T07:22:12.342Z,97450.16
2019-03-18T07:24:39.040Z,97461.20
2019-03-18T07:27:05.888Z,97458.88
2019-03-18T07:29:32.454Z,97458.19
2019-03-18T07:31:59.175Z,97466.39
2019-03-18T07:34:25.971Z,97458.92
2019-03-18T07:36:52.741Z,97460.34
2019-03-18T07:39:19.348Z,97465.17
2019-03-18T07:41:46.034Z,97470.78
2019-03-18T07:44:12.679Z,97477.98
2019-03-18T07:46:39.335Z,97475.32
2019-03-18T07:49:05.964Z,97480.84
2019-03-18T07:51:32.747Z,97478.53
2019-03-18T07:53:59.399Z,97476.59
2019-03-18T07:56:26.014Z,97478.64
2019-03-18T07:58:52.668Z,97483.67
2019-03-18T08:01:19.266Z,97489.45
2019-03-18T08:03:45.842Z,97486.39
2019-03-18T08:06:12.737Z,97479.20
2019-03-18T08:08:39.546Z,97480.15
2019-03-18T08:11:06.373Z,97501.00
2019-03-18T08:13:32.956Z,97499.45
2019-03-18T08:15:59.675Z,97498.91
2019-03-18T08:18:26.481Z,97488.84
2019-03-18T08:20:53.183Z,97490.80
2019-03-18T08:23:20.057Z,97489.08
2019-03-18T08:25:46.671Z,97497.28
2019-03-18T08:28:13.218Z,97489.84
2019-03-18T08:30:39.883Z,97491.00
2019-03-18T08:33:06.546Z,97485.08
2019-03-18T08:35:33.317Z,97481.28
2019-03-18T08:38:00.069Z,97485.90
2019-03-18T08:40:26.788Z,97495.42
2019-03-18T08:42:53.493Z,97494.41
2019-03-18T08:45:20.042Z,97494.91
2019-03-18T08:47:46.708Z,97493.56
2019-03-18T08:50:13.478Z,97499.69
2019-03-18T08:52:40.379Z,97504.41
2019-03-18T08:55:07.109Z,97505.25
2019-03-18T08:57:33.769Z,97508.63
2019-03-18T09:00:00.438Z,97515.73
2019-03-18T09:02:26.978Z,97511.95
2019-03-18T09:04:53.710Z,97511.19
2019-03-18T09:07:20.354Z,97516.97
2019-03-18T09:09:46.979Z,97510.34
2019-03-18T09:12:13.693Z,97517.97
2019-03-18T09:14:40.442Z,97521.46
2019-03-18T09:17:07.109Z,97526.63
2019-03-18T09:19:33.770Z,97533.16
2019-03-18T09:22:00.486Z,97539.95
2019-03-18T09:24:27.230Z,97540.36
2019-03-18T09:27:02.227Z,97542.53
2019-03-18T09:29:22.368Z,97528.64
2019-03-18T09:31:49.053Z,97533.98
2019-03-18T09:34:15.890Z,97526.86
2019-03-18T09:36:42.615Z,97518.84
2019-03-18T09:39:09.396Z,97519.09
2019-03-18T09:41:36.041Z,97514.55
2019-03-18T09:44:02.800Z,97516.53
2019-03-18T09:46:29.471Z,97515.77
2019-03-18T09:48:56.029Z,97518.05
2019-03-18T09:51:22.817Z,97521.68
2019-03-18T09:53:49.362Z,97521.16
2019-03-18T09:56:16.214Z,97536.31
2019-03-18T09:58:42.867Z,97540.31
2019-03-18T10:01:09.580Z,97539.83
2019-03-18T10:03:36.303Z,97542.81
2019-03-18T10:06:03.052Z,97544.98
2019-03-18T10:08:29.712Z,97527.91
2019-03-18T10:10:56.548Z,97540.93
2019-03-18T10:13:23.212Z,97546.63
2019-03-18T10:15:49.876Z,97544.71
2019-03-18T10:18:16.686Z,97544.44
2019-03-18T10:20:43.220Z,97536.84
2019-03-18T10:23:09.758Z,97538.20
2019-03-18T10:25:36.426Z,97541.68
2019-03-18T10:28:03.177Z,97534.19
2019-03-18T10:30:29.900Z,97534.13
2019-03-18T10:32:56.656Z,97528.92
2019-03-18T10:35:23.363Z,97534.94
2019-03-18T10:37:50.044Z,97536.03
2019-03-18T10:40:16.721Z,97539.59
2019-03-18T10:42:43.363Z,97542.13
2019-03-18T10:45:10.109Z,97544.17
2019-03-18T10:47:36.952Z,97553.00
2019-03-18T10:50:04.275Z,97551.33
2019-03-18T10:52:30.891Z,97548.47
2019-03-18T10:54:57.570Z,97550.34
2019-03-18T10:57:24.187Z,97553.45
2019-03-18T10:59:50.893Z,97558.36
2019-03-18T11:02:17.539Z,97567.48
2019-03-18T11:04:44.332Z,97570.79
2019-03-18T11:07:11.070Z,97585.17
2019-03-18T11:09:37.732Z,97589.72
2019-03-18T11:12:04.428Z,97594.06
2019-03-18T11:14:31.273Z,97594.00
2019-03-18T11:16:57.835Z,97598.55
2019-03-18T11:19:24.440Z,97599.87
2019-03-18T11:21:51.318Z,97603.97
2019-03-18T11:24:18.058Z,97597.28
2019-03-18T11:26:44.975Z,97598.66
2019-03-18T11:29:11.942Z,97599.98
2019-03-18T11:31:38.622Z,97597.67
2019-03-18T11:34:05.304Z,97595.36
2019-03-18T11:36:32.105Z,97594.91
2019-03-18T11:38:58.823Z,97596.54
2019-03-18T11:41:25.610Z,97589.03
2019-03-18T11:43:55.879Z,97579.27
2019-03-18T11:46:22.737Z,97577.23
2019-03-18T11:48:49.549Z,97582.06
2019-03-18T11:51:24.541Z,97578.22
2019-03-18T11:53:51.616Z,97580.20
2019-03-18T11:56:24.719Z,97577.91
2019-03-18T11:58:51.802Z,97578.73
2019-03-18T12:01:25.422Z,97571.66
2019-03-18T12:03:52.472Z,97571.00
2019-03-18T12:06:19.293Z,97568.16
2019-03-18T12:08:45.988Z,97581.43
2019-03-18T12:11:13.806Z,97582.56
2019-03-18T12:13:43.544Z,97587.78
2019-03-18T12:16:10.377Z,97573.02
2019-03-18T12:18:37.210Z,97569.05
2019-03-18T12:21:04.375Z,97568.84
2019-03-18T12:23:30.980Z,97566.81
2019-03-18T12:26:04.829Z,97561.05
2019-03-18T12:28:31.616Z,97557.33
2019-03-18T12:30:58.232Z,97559.52
2019-03-18T12:33:32.899Z,97564.30
2019-03-18T12:35:59.776Z,97557.94
2019-03-18T12:38:28.225Z,97553.61
2019-03-18T12:40:54.870Z,97557.27
2019-03-18T12:43:21.516Z,97550.72
2019-03-18T12:45:48.184Z,97557.60
2019-03-18T12:48:15.271Z,97561.63
2019-03-18T12:50:55.151Z,97563.87
2019-03-18T12:53:10.719Z,97568.66
2019-03-18T12:55:37.523Z,97567.06
2019-03-18T12:58:04.366Z,97563.38
2019-03-18T13:00:31.175Z,97568.59
2019-03-18T13:02:57.973Z,97566.34
2019-03-18T13:05:26.639Z,97571.44
2019-03-18T13:07:53.646Z,97565.45
2019-03-18T13:10:21.853Z,97561.70
2019-03-18T13:12:48.990Z,97566.22
2019-03-18T13:15:15.791Z,97560.06
2019-03-18T13:17:43.848Z,97568.95
2019-03-18T13:20:11.759Z,97556.88
2019-03-18T13:22:39.186Z,97565.27
2019-03-18T13:25:06.409Z,97559.25
2019-03-18T13:27:33.214Z,97559.28
2019-03-18T13:30:00.050Z,97565.19
2019-03-18T13:32:26.864Z,97566.69
2019-03-18T13:34:53.615Z,97564.92
2019-03-18T13:37:21.589Z,97553.50
2019-03-18T13:39:49.368Z,97557.27
2019-03-18T13:42:16.282Z,97556.37
2019-03-18T13:44:43.681Z,97560.84
2019-03-18T13:47:10.288Z,97565.25
2019-03-18T13:49:38.464Z,97565.41
2019-03-18T13:52:05.380Z,97564.36
2019-03-18T13:54:32.582Z,97573.09
2019-03-18T13:57:00.274Z,97577.77
2019-03-18T13:59:28.248Z,97574.94
2019-03-18T14:01:55.235Z,97578.33
2019-03-18T14:04:22.108Z,97571.72
2019-03-18T14:06:49.425Z,97580.28
2019-03-18T14:09:16.283Z,97578.08
2019-03-18T14:11:44.005Z,97576.89
2019-03-18T14:14:10.724Z,97584.73
2019-03-18T14:16:37.423Z,97585.75
2019-03-18T14:19:04.134Z,97587.97
2019-03-18T14:21:33.595Z,97603.50
2019-03-18T14:23:59.388Z,97595.31
2019-03-18T14:26:26.092Z,97611.89
2019-03-18T14:28:52.871Z,97608.78
2019-03-18T14:31:20.289Z,97610.14
2019-03-18T14:33:48.947Z,97604.50
2019-03-18T14:36:15.777Z,97607.84
2019-03-18T14:38:43.032Z,97608.80
2019-03-18T14:41:09.849Z,97613.12
2019-03-18T14:43:37.414Z,97610.34
2019-03-18T14:46:04.371Z,97609.98
2019-03-18T14:48:31.213Z,97604.86
2019-03-18T14:50:58.684Z,97593.47
2019-03-18T14:53:25.497Z,97597.64
2019-03-18T14:55:53.079Z,97601.96
2019-03-18T14:58:19.944Z,97599.52
2019-03-18T15:00:47.201Z,97605.75
2019-03-18T15:03:14.061Z,97606.69
2019-03-18T15:05:40.988Z,97616.14
2019-03-18T15:08:07.857Z,97610.67
2019-03-18T15:10:34.448Z,97615.98
2019-03-18T15:13:01.321Z,97617.63
2019-03-18T15:15:28.378Z,97620.38
2019-03-18T15:17:54.922Z,97622.23
2019-03-18T15:20:24.110Z,97614.86
2019-03-18T15:22:50.911Z,97621.84
2019-03-18T15:25:18.882Z,97619.44
2019-03-18T15:27:45.647Z,97626.73
2019-03-18T15:30:14.208Z,97631.95
2019-03-18T15:32:42.123Z,97635.50
2019-03-18T15:35:09.122Z,97636.89
2019-03-18T15:37:35.951Z,97640.41
2019-03-18T15:40:05.357Z,97639.06
2019-03-18T15:42:32.773Z,97640.11
2019-03-18T15:45:02.704Z,97646.08
2019-03-18T15:47:28.680Z,97648.50
2019-03-18T15:49:55.523Z,97654.49
2019-03-18T15:52:22.183Z,97645.03
2019-03-18T15:54:54.020Z,97646.39
2019-03-18T15:57:29.638Z,97655.61
2019-03-18T15:59:52.236Z,97648.25
2019-03-18T16:02:22.221Z,97651.78
2019-03-18T16:04:49.180Z,97654.80
2019-03-18T16:07:16.827Z,97655.59
2019-03-18T16:09:44.198Z,97659.40
2019-03-18T16:12:14.300Z,97666.42
2019-03-18T16:14:45.687Z,97667.45
2019-03-18T16:17:19.065Z,97667.93
2019-03-18T16:19:48.831Z,97672.16
2019-03-18T16:22:23.516Z,97672.27
2019-03-18T16:24:47.161Z,97681.86
2019-03-18T16:27:13.962Z,97682.02
2019-03-18T16:29:40.795Z,97683.35
2019-03-18T16:32:11.679Z,97677.81
2019-03-18T16:34:37.699Z,97682.94
2019-03-18T16:37:04.637Z,97683.75
2019-03-18T16:39:31.536Z,97689.41
2019-03-18T16:41:58.393Z,97688.62
2019-03-18T16:44:25.148Z,97698.03
2019-03-18T16:46:52.333Z,97702.27
2019-03-18T16:49:19.012Z,97696.05
2019-03-18T16:51:45.923Z,97708.13
2019-03-18T16:54:12.776Z,97704.64
2019-03-18T16:56:39.473Z,97708.84
2019-03-18T16:59:06.355Z,97707.97
2019-03-18T17:01:33.234Z,97704.64
2019-03-18T17:04:00.050Z,97703.68
2019-03-18T17:06:26.721Z,97714.13
2019-03-18T17:08:53.772Z,97716.03
2019-03-18T17:11:22.217Z,97725.09
2019-03-18T17:13:49.021Z,97723.14
2019-03-18T17:16:15.809Z,97733.50
2019-03-18T17:18:42.688Z,97733.38
2019-03-18T17:21:10.341Z,97734.53
2019-03-18T17:23:37.178Z,97743.32
2019-03-18T17:26:04.069Z,97743.39
2019-03-18T17:28:30.835Z,97750.19
2019-03-18T17:30:57.699Z,97755.89
2019-03-18T17:33:24.259Z,97751.55
2019-03-18T17:35:50.955Z,97756.66
2019-03-18T17:38:17.704Z,97763.78
2019-03-18T17:40:44.485Z,97771.19
2019-03-18T17:43:11.154Z,97775.75
2019-03-18T17:45:38.089Z,97782.55
2019-03-18T17:48:04.831Z,97782.89
2019-03-18T17:50:31.507Z,97787.83
2019-03-18T17:53:03.179Z,97782.45
2019-03-18T17:55:27.043Z,97797.14
2019-03-18T17:57:53.747Z,97797.91
2019-03-18T18:00:22.638Z,97803.52
2019-03-18T18:02:52.490Z,97804.20
2019-03-18T18:05:18.342Z,97804.38
2019-03-18T18:07:45.138Z,97809.53
2019-03-18T18:10:12.020Z,97810.70
2019-03-18T18:12:38.892Z,97817.05
2019-03-18T18:15:05.796Z,97821.08
2019-03-18T18:17:32.787Z,97826.52
2019-03-18T18:19:59.698Z,97829.96
2019-03-18T18:22:26.564Z,97830.83
2019-03-18T18:24:53.329Z,97839.03
2019-03-18T18:27:20.174Z,97840.70
2019-03-18T18:29:46.931Z,97847.23
2019-03-18T18:32:13.596Z,97855.52
2019-03-18T18:34:40.556Z,97856.41
2019-03-18T18:37:07.225Z,97861.28
2019-03-18T18:39:33.955Z,97861.67
2019-03-18T18:42:00.805Z,97865.53
2019-03-18T18:44:27.486Z,97863.00
2019-03-18T18:46:54.300Z,97874.72
2019-03-18T18:49:21.169Z,97875.56
2019-03-18T18:51:47.979Z,97875.41
2019-03-18T18:54:14.733Z,97873.96
2019-03-18T18:56:41.518Z,97879.11
2019-03-18T18:59:08.246Z,97883.30
2019-03-18T19:01:34.824Z,97881.50
2019-03-18T19:04:01.658Z,97885.38
2019-03-18T19:06:28.568Z,97888.25
2019-03-18T19:08:55.491Z,97885.64
2019-03-18T19:11:22.311Z,97896.00
2019-03-18T19:13:48.891Z,97897.98
2019-03-18T19:16:15.642Z,97898.73
2019-03-18T19:18:42.432Z,97903.73
2019-03-18T19:21:10.313Z,97902.75
2019-03-18T19:23:38.137Z,97906.38
2019-03-18T19:26:05.088Z,97913.30
2019-03-18T19:28:31.953Z,97916.14
2019-03-18T19:30:58.801Z,97915.84
2019-03-18T19:33:25.602Z,97923.22
2019-03-18T19:35:53.179Z,97920.23
2019-03-18T19:38:19.974Z,97920.77
2019-03-18T19:40:46.651Z,97928.59
2019-03-18T19:43:14.351Z,97927.55
2019-03-18T19:45:41.070Z,97924.11
2019-03-18T19:48:08.277Z,97932.58
2019-03-18T19:50:35.165Z,97923.02
2019-03-18T19:53:02.533Z,97929.81
2019-03-18T19:55:29.317Z,97931.52
2019-03-18T19:57:56.326Z,97932.57
2019-03-18T20:00:23.590Z,97934.44
2019-03-18T20:02:50.874Z,97937.72
2019-03-18T20:05:20.492Z,97937.72
2019-03-18T20:07:47.330Z,97941.67
2019-03-18T20:10:14.104Z,97949.08
2019-03-18T20:12:41.067Z,97945.65
2019-03-18T20:15:09.199Z,97950.16
2019-03-18T20:17:36.237Z,97958.22
2019-03-18T20:20:03.856Z,97957.33
2019-03-18T20:22:30.493Z,97960.91
2019-03-18T20:24:57.333Z,97965.53
2019-03-18T20:27:24.133Z,97962.11
2019-03-18T20:29:50.886Z,97962.50
2019-03-18T20:32:19.621Z,97952.88
2019-03-18T20:34:46.690Z,97956.53
2019-03-18T20:37:13.660Z,97963.16
2019-03-18T20:39:40.534Z,97953.84
2019-03-18T20:42:07.554Z,97953.03
2019-03-18T20:44:34.336Z,97957.58
2019-03-18T20:47:01.227Z,97960.11
2019-03-18T20:49:28.134Z,97960.39
2019-03-18T20:51:55.028Z,97966.72
2019-03-18T20:54:22.061Z,97964.42
2019-03-18T20:56:48.977Z,97966.59
2019-03-18T20:59:15.823Z,97973.13
2019-03-18T21:01:42.504Z,97980.71
2019-03-18T21:04:10.307Z,97981.45
2019-03-18T21:06:37.306Z,97981.75
2019-03-18T21:09:06.007Z,97983.75
2019-03-18T21:11:32.914Z,97987.81
2019-03-18T21:13:59.930Z,97984.66
2019-03-18T21:16:28.839Z,97992.48
2019-03-18T21:18:55.945Z,97989.85
2019-03-18T21:21:22.657Z,97992.75
2019-03-18T21:23:49.396Z,97993.05
2019-03-18T21:26:16.335Z,97993.66
2019-03-18T21:28:43.198Z,97993.42
2019-03-18T21:31:09.944Z,97992.86
2019-03-18T21:33:36.771Z,97994.20
2019-03-18T21:36:03.503Z,98003.19
2019-03-18T21:38:30.041Z,98007.73
2019-03-18T21:40:57.030Z,98008.68
2019-03-18T21:43:25.800Z,98014.04
2019-03-18T21:45:52.579Z,98008.38
2019-03-18T21:48:19.407Z,98005.62
2019-03-18T21:50:46.500Z,98012.13
2019-03-18T21:53:13.181Z,98013.63
2019-03-18T21:55:40.227Z,98006.23
2019-03-18T21:58:07.072Z,98013.91
2019-03-18T22:00:34.983Z,98012.52
2019-03-18T22:03:02.998Z,98010.60
2019-03-18T22:05:30.778Z,98016.21
2019-03-18T22:07:57.603Z,98022.84
2019-03-18T22:10:24.440Z,98016.84
2019-03-18T22:12:51.464Z,98019.97
2019-03-18T22:15:18.490Z,98022.97
2019-03-18T22:17:45.356Z,98022.62
2019-03-18T22:20:13.166Z,98017.90
2019-03-18T22:22:39.974Z,98021.52
2019-03-18T22:25:07.425Z,98032.83
2019-03-18T22:27:34.501Z,98037.77
2019-03-18T22:30:01.354Z,98042.25
2019-03-18T22:32:30.145Z,98040.78
2019-03-18T22:34:57.968Z,98042.50
2019-03-18T22:37:24.735Z,98043.94
2019-03-18T22:39:51.653Z,98049.66
2019-03-18T22:42:18.213Z,98053.16
2019-03-18T22:44:45.056Z,98057.70
2019-03-18T22:47:11.839Z,98063.27
2019-03-18T22:49:38.734Z,98060.83
2019-03-18T22:52:05.858Z,98060.01
2019-03-18T22:54:32.768Z,98053.00
2019-03-18T22:56:59.565Z,98061.25
2019-03-18T22:59:26.205Z,98056.93
2019-03-18T23:01:52.990Z,98065.78
2019-03-18T23:04:19.930Z,98067.53
2019-03-18T23:06:46.586Z,98062.48
2019-03-18T23:09:13.256Z,98066.04
2019-03-18T23:11:39.817Z,98067.99
2019-03-18T23:14:06.349Z,98063.03
2019-03-18T23:16:33.001Z,98067.97
2019-03-18T23:18:59.660Z,98067.55
2019-03-18T23:21:26.635Z,98070.72
2019-03-18T23:23:53.168Z,98076.53
2019-03-18T23:26:20.082Z,98081.26
2019-03-18T23:28:46.719Z,98085.16
2019-03-18T23:31:13.249Z,98079.89
2019-03-18T23:33:40.026Z,98081.33
2019-03-18T23:36:06.720Z,98087.30
2019-03-18T23:38:33.321Z,98082.63
2019-03-18T23:40:59.996Z,98086.89
2019-03-18T23:43:26.714Z,98087.59
2019-03-18T23:45:53.252Z,98090.88
2019-03-18T23:48:20.142Z,98094.91
2019-03-18T23:50:46.916Z,98097.59
2019-03-18T23:53:13.483Z,98098.32
2019-03-18T23:55:40.463Z,98105.03
2019-03-18T23:58:07.066Z,98098.62
